sensor_id;sensor_type;location;lat;lon;timestamp;temperature;humidity
34640;DHT22;22600;48.186;11.526;2024-03-07T00:01:48;21.60;43.80
34640;DHT22;22600;48.186;11.526;2024-03-07T00:04:13;21.60;43.80
34640;DHT22;22600;48.186;11.526;2024-03-07T00:06:39;21.60;43.80
34640;DHT22;22600;48.186;11.526;2024-03-07T00:09:05;21.60;43.80
34640;DHT22;22600;48.186;11.526;2024-03-07T00:11:31;21.60;43.80
34640;DHT22;22600;48.186;11.526;2024-03-07T00:13:57;21.60;43.60
34640;DHT22;22600;48.186;11.526;2024-03-07T00:16:22;21.60;43.70
34640;DHT22;22600;48.186;11.526;2024-03-07T00:18:48;21.60;43.70
34640;DHT22;22600;48.186;11.526;2024-03-07T00:21:13;21.60;43.70
34640;DHT22;22600;48.186;11.526;2024-03-07T00:23:38;21.60;43.70
34640;DHT22;22600;48.186;11.526;2024-03-07T00:26:04;21.60;43.70
34640;DHT22;22600;48.186;11.526;2024-03-07T00:28:29;21.60;43.70
34640;DHT22;22600;48.186;11.526;2024-03-07T00:30:58;21.60;43.70
34640;DHT22;22600;48.186;11.526;2024-03-07T00:35:50;21.60;43.60
34640;DHT22;22600;48.186;11.526;2024-03-07T00:38:16;21.60;43.50
34640;DHT22;22600;48.186;11.526;2024-03-07T00:40:41;21.60;43.50
34640;DHT22;22600;48.186;11.526;2024-03-07T00:43:07;21.60;43.50
34640;DHT22;22600;48.186;11.526;2024-03-07T00:45:32;21.60;43.60
34640;DHT22;22600;48.186;11.526;2024-03-07T00:50:24;21.50;43.60
34640;DHT22;22600;48.186;11.526;2024-03-07T00:52:50;21.60;43.60
34640;DHT22;22600;48.186;11.526;2024-03-07T00:57:41;21.60;43.60
34640;DHT22;22600;48.186;11.526;2024-03-07T01:00:07;21.60;43.50
34640;DHT22;22600;48.186;11.526;2024-03-07T01:10:02;21.60;43.50
34640;DHT22;22600;48.186;11.526;2024-03-07T01:12:28;21.60;43.50
34640;DHT22;22600;48.186;11.526;2024-03-07T01:14:55;21.60;43.60
34640;DHT22;22600;48.186;11.526;2024-03-07T01:17:22;21.60;43.50
34640;DHT22;22600;48.186;11.526;2024-03-07T01:19:48;21.60;43.50
34640;DHT22;22600;48.186;11.526;2024-03-07T01:22:13;21.60;43.50
34640;DHT22;22600;48.186;11.526;2024-03-07T01:24:39;21.60;43.50
34640;DHT22;22600;48.186;11.526;2024-03-07T01:27:05;21.50;43.50
34640;DHT22;22600;48.186;11.526;2024-03-07T01:29:30;21.60;43.50
34640;DHT22;22600;48.186;11.526;2024-03-07T01:34:21;21.60;43.60
34640;DHT22;22600;48.186;11.526;2024-03-07T01:36:47;21.50;43.60
34640;DHT22;22600;48.186;11.526;2024-03-07T01:41:39;21.60;43.50
34640;DHT22;22600;48.186;11.526;2024-03-07T01:44:05;21.60;43.50
34640;DHT22;22600;48.186;11.526;2024-03-07T01:46:32;21.60;43.50
34640;DHT22;22600;48.186;11.526;2024-03-07T01:48:58;21.60;43.60
34640;DHT22;22600;48.186;11.526;2024-03-07T01:51:23;21.60;43.50
34640;DHT22;22600;48.186;11.526;2024-03-07T01:53:49;21.60;43.40
34640;DHT22;22600;48.186;11.526;2024-03-07T01:58:41;21.60;43.40
34640;DHT22;22600;48.186;11.526;2024-03-07T02:01:08;21.60;43.40
34640;DHT22;22600;48.186;11.526;2024-03-07T02:08:28;21.60;43.40
34640;DHT22;22600;48.186;11.526;2024-03-07T02:13:19;21.60;43.40
34640;DHT22;22600;48.186;11.526;2024-03-07T02:15:44;21.60;43.40
34640;DHT22;22600;48.186;11.526;2024-03-07T02:18:10;21.60;43.50
34640;DHT22;22600;48.186;11.526;2024-03-07T02:23:01;21.60;43.50
34640;DHT22;22600;48.186;11.526;2024-03-07T02:25:28;26.60;46.10
34640;DHT22;22600;48.186;11.526;2024-03-07T02:32:47;21.60;43.50
34640;DHT22;22600;48.186;11.526;2024-03-07T02:37:43;21.60;43.50
34640;DHT22;22600;48.186;11.526;2024-03-07T02:40:11;21.50;43.40
34640;DHT22;22600;48.186;11.526;2024-03-07T02:42:37;21.50;43.50
34640;DHT22;22600;48.186;11.526;2024-03-07T02:47:28;21.60;43.40
34640;DHT22;22600;48.186;11.526;2024-03-07T02:49:54;21.50;43.30
34640;DHT22;22600;48.186;11.526;2024-03-07T02:54:45;21.60;43.30
34640;DHT22;22600;48.186;11.526;2024-03-07T02:57:11;21.60;43.30
34640;DHT22;22600;48.186;11.526;2024-03-07T02:59:36;21.50;43.20
34640;DHT22;22600;48.186;11.526;2024-03-07T03:02:02;21.60;43.30
34640;DHT22;22600;48.186;11.526;2024-03-07T03:04:27;21.50;43.10
34640;DHT22;22600;48.186;11.526;2024-03-07T03:09:19;21.60;43.30
34640;DHT22;22600;48.186;11.526;2024-03-07T03:11:44;21.50;43.30
34640;DHT22;22600;48.186;11.526;2024-03-07T03:16:36;21.50;43.30
34640;DHT22;22600;48.186;11.526;2024-03-07T03:19:01;21.50;43.30
34640;DHT22;22600;48.186;11.526;2024-03-07T03:21:27;21.50;43.40
34640;DHT22;22600;48.186;11.526;2024-03-07T03:23:52;21.50;43.40
34640;DHT22;22600;48.186;11.526;2024-03-07T03:26:20;21.60;43.40
34640;DHT22;22600;48.186;11.526;2024-03-07T03:28:47;21.50;43.40
34640;DHT22;22600;48.186;11.526;2024-03-07T03:33:39;21.50;43.30
34640;DHT22;22600;48.186;11.526;2024-03-07T03:36:06;21.50;43.30
34640;DHT22;22600;48.186;11.526;2024-03-07T03:38:32;21.50;43.30
34640;DHT22;22600;48.186;11.526;2024-03-07T03:40:57;21.50;43.30
34640;DHT22;22600;48.186;11.526;2024-03-07T03:43:23;21.50;43.30
34640;DHT22;22600;48.186;11.526;2024-03-07T03:45:48;21.50;43.20
34640;DHT22;22600;48.186;11.526;2024-03-07T03:48:14;21.50;43.30
34640;DHT22;22600;48.186;11.526;2024-03-07T03:50:39;21.60;43.40
34640;DHT22;22600;48.186;11.526;2024-03-07T03:53:05;21.50;43.20
34640;DHT22;22600;48.186;11.526;2024-03-07T03:55:31;21.50;43.20
34640;DHT22;22600;48.186;11.526;2024-03-07T03:57:57;21.50;43.10
34640;DHT22;22600;48.186;11.526;2024-03-07T04:00:23;21.50;43.20
34640;DHT22;22600;48.186;11.526;2024-03-07T04:02:48;23.70;44.30
34640;DHT22;22600;48.186;11.526;2024-03-07T04:05:15;21.50;43.30
34640;DHT22;22600;48.186;11.526;2024-03-07T04:07:41;21.50;43.20
34640;DHT22;22600;48.186;11.526;2024-03-07T04:10:09;21.50;43.20
34640;DHT22;22600;48.186;11.526;2024-03-07T04:12:36;21.50;43.30
34640;DHT22;22600;48.186;11.526;2024-03-07T04:15:03;21.50;43.30
34640;DHT22;22600;48.186;11.526;2024-03-07T04:17:29;21.50;43.20
34640;DHT22;22600;48.186;11.526;2024-03-07T04:19:55;21.50;43.20
34640;DHT22;22600;48.186;11.526;2024-03-07T04:24:46;21.50;43.20
34640;DHT22;22600;48.186;11.526;2024-03-07T04:27:13;21.50;43.20
34640;DHT22;22600;48.186;11.526;2024-03-07T04:29:38;21.60;43.20
34640;DHT22;22600;48.186;11.526;2024-03-07T04:32:04;21.60;43.20
34640;DHT22;22600;48.186;11.526;2024-03-07T04:34:30;21.60;43.20
34640;DHT22;22600;48.186;11.526;2024-03-07T04:36:59;21.50;43.20
34640;DHT22;22600;48.186;11.526;2024-03-07T04:39:26;21.50;43.30
34640;DHT22;22600;48.186;11.526;2024-03-07T04:44:27;21.50;43.20
34640;DHT22;22600;48.186;11.526;2024-03-07T04:46:52;21.50;43.20
34640;DHT22;22600;48.186;11.526;2024-03-07T04:49:25;21.50;43.20
34640;DHT22;22600;48.186;11.526;2024-03-07T04:51:55;21.50;43.10
34640;DHT22;22600;48.186;11.526;2024-03-07T04:54:21;21.50;43.10
34640;DHT22;22600;48.186;11.526;2024-03-07T04:56:47;21.60;43.10
34640;DHT22;22600;48.186;11.526;2024-03-07T04:59:13;21.50;43.00
34640;DHT22;22600;48.186;11.526;2024-03-07T05:01:39;21.50;43.00
34640;DHT22;22600;48.186;11.526;2024-03-07T05:04:05;21.50;43.00
34640;DHT22;22600;48.186;11.526;2024-03-07T05:08:59;21.50;43.10
34640;DHT22;22600;48.186;11.526;2024-03-07T05:11:25;21.50;43.00
34640;DHT22;22600;48.186;11.526;2024-03-07T05:13:50;21.50;43.00
34640;DHT22;22600;48.186;11.526;2024-03-07T05:16:16;21.50;43.10
34640;DHT22;22600;48.186;11.526;2024-03-07T05:18:42;21.50;43.10
34640;DHT22;22600;48.186;11.526;2024-03-07T05:21:08;21.50;43.00
34640;DHT22;22600;48.186;11.526;2024-03-07T05:23:52;21.50;43.00
34640;DHT22;22600;48.186;11.526;2024-03-07T05:31:10;21.50;42.90
34640;DHT22;22600;48.186;11.526;2024-03-07T05:33:38;21.40;42.80
34640;DHT22;22600;48.186;11.526;2024-03-07T05:36:04;21.60;43.00
34640;DHT22;22600;48.186;11.526;2024-03-07T05:38:42;21.50;43.00
34640;DHT22;22600;48.186;11.526;2024-03-07T05:41:11;21.50;43.00
34640;DHT22;22600;48.186;11.526;2024-03-07T05:48:35;21.50;42.80
34640;DHT22;22600;48.186;11.526;2024-03-07T05:51:00;21.50;42.70
34640;DHT22;22600;48.186;11.526;2024-03-07T05:55:52;21.50;42.80
34640;DHT22;22600;48.186;11.526;2024-03-07T05:58:19;21.50;42.80
34640;DHT22;22600;48.186;11.526;2024-03-07T06:00:47;21.50;42.80
34640;DHT22;22600;48.186;11.526;2024-03-07T06:03:18;21.50;42.80
34640;DHT22;22600;48.186;11.526;2024-03-07T06:08:16;21.60;42.90
34640;DHT22;22600;48.186;11.526;2024-03-07T06:13:08;21.50;42.80
34640;DHT22;22600;48.186;11.526;2024-03-07T06:15:34;21.50;42.80
34640;DHT22;22600;48.186;11.526;2024-03-07T06:18:00;21.50;42.80
34640;DHT22;22600;48.186;11.526;2024-03-07T06:20:25;21.50;42.80
34640;DHT22;22600;48.186;11.526;2024-03-07T06:22:51;21.50;42.70
34640;DHT22;22600;48.186;11.526;2024-03-07T06:25:17;21.50;42.70
34640;DHT22;22600;48.186;11.526;2024-03-07T06:32:59;21.50;42.70
34640;DHT22;22600;48.186;11.526;2024-03-07T06:35:25;21.50;42.80
34640;DHT22;22600;48.186;11.526;2024-03-07T06:37:50;21.50;42.80
34640;DHT22;22600;48.186;11.526;2024-03-07T06:40:15;21.50;42.70
34640;DHT22;22600;48.186;11.526;2024-03-07T06:42:46;21.60;42.80
34640;DHT22;22600;48.186;11.526;2024-03-07T06:45:12;21.50;42.70
34640;DHT22;22600;48.186;11.526;2024-03-07T06:50:03;21.50;42.70
34640;DHT22;22600;48.186;11.526;2024-03-07T06:52:29;21.60;42.70
34640;DHT22;22600;48.186;11.526;2024-03-07T06:54:54;21.50;42.70
34640;DHT22;22600;48.186;11.526;2024-03-07T06:57:21;21.50;42.70
34640;DHT22;22600;48.186;11.526;2024-03-07T06:59:46;21.50;42.60
34640;DHT22;22600;48.186;11.526;2024-03-07T07:02:12;21.50;42.60
34640;DHT22;22600;48.186;11.526;2024-03-07T07:04:37;21.50;42.50
34640;DHT22;22600;48.186;11.526;2024-03-07T07:07:13;21.50;42.50
34640;DHT22;22600;48.186;11.526;2024-03-07T07:09:39;21.50;42.50
34640;DHT22;22600;48.186;11.526;2024-03-07T07:12:05;21.50;42.50
34640;DHT22;22600;48.186;11.526;2024-03-07T07:16:56;21.50;42.50
34640;DHT22;22600;48.186;11.526;2024-03-07T07:19:24;21.50;42.50
34640;DHT22;22600;48.186;11.526;2024-03-07T07:21:50;21.50;42.50
34640;DHT22;22600;48.186;11.526;2024-03-07T07:24:19;21.50;42.40
34640;DHT22;22600;48.186;11.526;2024-03-07T07:29:10;21.50;42.30
34640;DHT22;22600;48.186;11.526;2024-03-07T07:31:36;21.50;42.30
34640;DHT22;22600;48.186;11.526;2024-03-07T07:38:55;21.50;42.50
34640;DHT22;22600;48.186;11.526;2024-03-07T07:41:20;21.50;42.40
34640;DHT22;22600;48.186;11.526;2024-03-07T07:43:46;21.50;42.40
34640;DHT22;22600;48.186;11.526;2024-03-07T07:46:13;21.50;42.50
34640;DHT22;22600;48.186;11.526;2024-03-07T07:48:38;21.50;42.50
34640;DHT22;22600;48.186;11.526;2024-03-07T07:53:30;21.50;42.40
34640;DHT22;22600;48.186;11.526;2024-03-07T07:55:55;21.50;42.40
34640;DHT22;22600;48.186;11.526;2024-03-07T08:00:47;21.40;42.50
34640;DHT22;22600;48.186;11.526;2024-03-07T08:03:14;21.50;42.40
34640;DHT22;22600;48.186;11.526;2024-03-07T08:05:43;21.50;42.40
34640;DHT22;22600;48.186;11.526;2024-03-07T08:08:08;21.50;42.40
34640;DHT22;22600;48.186;11.526;2024-03-07T08:10:36;21.50;42.50
34640;DHT22;22600;48.186;11.526;2024-03-07T08:13:03;21.50;42.50
34640;DHT22;22600;48.186;11.526;2024-03-07T08:15:29;21.50;42.40
34640;DHT22;22600;48.186;11.526;2024-03-07T08:17:55;21.40;42.50
34640;DHT22;22600;48.186;11.526;2024-03-07T08:20:21;21.50;42.50
34640;DHT22;22600;48.186;11.526;2024-03-07T08:22:48;21.40;42.40
34640;DHT22;22600;48.186;11.526;2024-03-07T08:27:44;21.50;42.40
34640;DHT22;22600;48.186;11.526;2024-03-07T08:30:11;21.50;42.40
34640;DHT22;22600;48.186;11.526;2024-03-07T08:32:38;21.50;42.40
34640;DHT22;22600;48.186;11.526;2024-03-07T08:35:04;21.50;42.30
34640;DHT22;22600;48.186;11.526;2024-03-07T08:37:35;21.50;42.30
34640;DHT22;22600;48.186;11.526;2024-03-07T08:40:01;21.50;42.30
34640;DHT22;22600;48.186;11.526;2024-03-07T08:42:30;21.50;42.30
34640;DHT22;22600;48.186;11.526;2024-03-07T08:44:57;21.50;42.30
34640;DHT22;22600;48.186;11.526;2024-03-07T08:47:23;21.50;42.40
34640;DHT22;22600;48.186;11.526;2024-03-07T08:49:48;21.50;42.30
34640;DHT22;22600;48.186;11.526;2024-03-07T08:52:14;21.50;42.30
34640;DHT22;22600;48.186;11.526;2024-03-07T08:57:05;21.50;42.30
34640;DHT22;22600;48.186;11.526;2024-03-07T08:59:32;21.50;42.20
34640;DHT22;22600;48.186;11.526;2024-03-07T09:01:58;21.40;42.10
34640;DHT22;22600;48.186;11.526;2024-03-07T09:09:19;21.50;42.10
34640;DHT22;22600;48.186;11.526;2024-03-07T09:11:45;21.50;42.10
34640;DHT22;22600;48.186;11.526;2024-03-07T09:14:11;21.50;42.10
34640;DHT22;22600;48.186;11.526;2024-03-07T09:16:36;21.50;42.10
34640;DHT22;22600;48.186;11.526;2024-03-07T09:19:01;21.50;42.10
34640;DHT22;22600;48.186;11.526;2024-03-07T09:23:55;21.50;42.10
34640;DHT22;22600;48.186;11.526;2024-03-07T09:26:20;21.50;42.10
34640;DHT22;22600;48.186;11.526;2024-03-07T09:31:14;21.50;42.10
34640;DHT22;22600;48.186;11.526;2024-03-07T09:33:40;21.50;42.10
34640;DHT22;22600;48.186;11.526;2024-03-07T09:36:05;21.50;42.10
34640;DHT22;22600;48.186;11.526;2024-03-07T09:38:32;21.50;42.10
34640;DHT22;22600;48.186;11.526;2024-03-07T09:40:58;21.50;42.10
34640;DHT22;22600;48.186;11.526;2024-03-07T09:43:25;21.50;42.10
34640;DHT22;22600;48.186;11.526;2024-03-07T09:45:51;21.50;42.00
34640;DHT22;22600;48.186;11.526;2024-03-07T09:48:16;21.50;42.00
34640;DHT22;22600;48.186;11.526;2024-03-07T09:50:42;21.50;42.00
34640;DHT22;22600;48.186;11.526;2024-03-07T09:53:09;21.50;41.90
34640;DHT22;22600;48.186;11.526;2024-03-07T09:55:35;21.50;41.80
34640;DHT22;22600;48.186;11.526;2024-03-07T10:00:26;21.50;41.90
34640;DHT22;22600;48.186;11.526;2024-03-07T10:05:24;21.50;41.80
34640;DHT22;22600;48.186;11.526;2024-03-07T10:10:19;21.50;41.70
34640;DHT22;22600;48.186;11.526;2024-03-07T10:12:44;21.50;41.80
34640;DHT22;22600;48.186;11.526;2024-03-07T10:15:10;21.50;41.90
34640;DHT22;22600;48.186;11.526;2024-03-07T10:17:41;21.50;41.80
34640;DHT22;22600;48.186;11.526;2024-03-07T10:20:07;21.50;41.70
34640;DHT22;22600;48.186;11.526;2024-03-07T10:22:38;21.50;41.60
34640;DHT22;22600;48.186;11.526;2024-03-07T10:27:29;21.50;41.60
34640;DHT22;22600;48.186;11.526;2024-03-07T10:29:55;21.50;41.60
34640;DHT22;22600;48.186;11.526;2024-03-07T10:32:21;21.50;41.80
34640;DHT22;22600;48.186;11.526;2024-03-07T10:34:49;21.50;41.80
34640;DHT22;22600;48.186;11.526;2024-03-07T10:37:15;21.50;41.80
34640;DHT22;22600;48.186;11.526;2024-03-07T10:39:45;21.50;41.60
34640;DHT22;22600;48.186;11.526;2024-03-07T10:42:13;21.50;41.70
34640;DHT22;22600;48.186;11.526;2024-03-07T10:44:42;21.60;41.70
34640;DHT22;22600;48.186;11.526;2024-03-07T10:49:36;21.50;41.50
34640;DHT22;22600;48.186;11.526;2024-03-07T10:52:16;21.60;41.50
34640;DHT22;22600;48.186;11.526;2024-03-07T10:54:59;21.60;41.50
34640;DHT22;22600;48.186;11.526;2024-03-07T10:57:29;21.50;41.40
34640;DHT22;22600;48.186;11.526;2024-03-07T10:59:56;21.50;41.40
34640;DHT22;22600;48.186;11.526;2024-03-07T11:04:52;21.60;41.50
34640;DHT22;22600;48.186;11.526;2024-03-07T11:07:19;21.50;41.40
34640;DHT22;22600;48.186;11.526;2024-03-07T11:09:46;21.60;41.50
34640;DHT22;22600;48.186;11.526;2024-03-07T11:12:12;21.60;41.60
34640;DHT22;22600;48.186;11.526;2024-03-07T11:14:38;21.50;41.60
34640;DHT22;22600;48.186;11.526;2024-03-07T11:19:33;21.60;41.70
34640;DHT22;22600;48.186;11.526;2024-03-07T11:22:02;21.50;41.50
34640;DHT22;22600;48.186;11.526;2024-03-07T11:24:33;21.60;41.60
34640;DHT22;22600;48.186;11.526;2024-03-07T11:26:59;21.50;41.50
34640;DHT22;22600;48.186;11.526;2024-03-07T11:31:53;21.60;41.70
34640;DHT22;22600;48.186;11.526;2024-03-07T11:34:20;21.60;41.80
34640;DHT22;22600;48.186;11.526;2024-03-07T11:36:48;21.60;41.80
34640;DHT22;22600;48.186;11.526;2024-03-07T11:42:01;21.60;41.90
34640;DHT22;22600;48.186;11.526;2024-03-07T11:47:00;21.60;42.20
34640;DHT22;22600;48.186;11.526;2024-03-07T11:49:34;21.60;42.10
34640;DHT22;22600;48.186;11.526;2024-03-07T11:52:01;21.60;42.10
34640;DHT22;22600;48.186;11.526;2024-03-07T11:56:56;21.60;42.10
34640;DHT22;22600;48.186;11.526;2024-03-07T11:59:22;21.60;42.00
34640;DHT22;22600;48.186;11.526;2024-03-07T12:04:13;21.60;42.10
34640;DHT22;22600;48.186;11.526;2024-03-07T12:06:49;21.60;42.10
34640;DHT22;22600;48.186;11.526;2024-03-07T12:09:15;21.60;42.00
34640;DHT22;22600;48.186;11.526;2024-03-07T12:11:51;21.60;41.90
34640;DHT22;22600;48.186;11.526;2024-03-07T12:14:18;21.60;42.00
34640;DHT22;22600;48.186;11.526;2024-03-07T12:16:44;21.60;41.90
34640;DHT22;22600;48.186;11.526;2024-03-07T12:19:10;21.60;41.90
34640;DHT22;22600;48.186;11.526;2024-03-07T12:21:36;21.60;41.90
34640;DHT22;22600;48.186;11.526;2024-03-07T12:24:10;21.60;41.90
34640;DHT22;22600;48.186;11.526;2024-03-07T12:26:36;21.60;41.90
34640;DHT22;22600;48.186;11.526;2024-03-07T12:31:29;21.60;41.90
34640;DHT22;22600;48.186;11.526;2024-03-07T12:39:00;21.60;41.90
34640;DHT22;22600;48.186;11.526;2024-03-07T12:41:34;21.60;41.90
34640;DHT22;22600;48.186;11.526;2024-03-07T12:44:00;21.60;41.90
34640;DHT22;22600;48.186;11.526;2024-03-07T12:46:25;21.60;41.90
34640;DHT22;22600;48.186;11.526;2024-03-07T12:48:53;21.60;41.90
34640;DHT22;22600;48.186;11.526;2024-03-07T12:51:22;21.60;41.90
34640;DHT22;22600;48.186;11.526;2024-03-07T12:53:48;21.60;41.90
34640;DHT22;22600;48.186;11.526;2024-03-07T12:58:45;21.60;41.90
34640;DHT22;22600;48.186;11.526;2024-03-07T13:01:11;21.60;41.90
34640;DHT22;22600;48.186;11.526;2024-03-07T13:06:02;21.60;41.90
34640;DHT22;22600;48.186;11.526;2024-03-07T13:08:29;21.60;41.90
34640;DHT22;22600;48.186;11.526;2024-03-07T13:13:21;21.60;41.90
34640;DHT22;22600;48.186;11.526;2024-03-07T13:15:46;21.60;42.00
34640;DHT22;22600;48.186;11.526;2024-03-07T13:18:12;21.60;41.90
34640;DHT22;22600;48.186;11.526;2024-03-07T13:20:38;21.70;41.90
34640;DHT22;22600;48.186;11.526;2024-03-07T13:23:04;21.60;41.90
34640;DHT22;22600;48.186;11.526;2024-03-07T13:25:30;21.60;41.90
34640;DHT22;22600;48.186;11.526;2024-03-07T13:28:01;21.60;41.90
34640;DHT22;22600;48.186;11.526;2024-03-07T13:32:54;21.60;41.80
34640;DHT22;22600;48.186;11.526;2024-03-07T13:35:20;21.70;41.80
34640;DHT22;22600;48.186;11.526;2024-03-07T13:37:47;21.60;41.80
34640;DHT22;22600;48.186;11.526;2024-03-07T13:40:12;21.70;41.80
34640;DHT22;22600;48.186;11.526;2024-03-07T13:45:20;21.70;41.70
34640;DHT22;22600;48.186;11.526;2024-03-07T13:47:49;21.60;41.70
34640;DHT22;22600;48.186;11.526;2024-03-07T13:50:18;21.60;41.60
34640;DHT22;22600;48.186;11.526;2024-03-07T13:52:48;21.70;41.70
34640;DHT22;22600;48.186;11.526;2024-03-07T13:55:34;21.60;41.70
34640;DHT22;22600;48.186;11.526;2024-03-07T13:58:02;21.60;41.50
34640;DHT22;22600;48.186;11.526;2024-03-07T14:00:36;21.60;41.50
34640;DHT22;22600;48.186;11.526;2024-03-07T14:10:39;21.60;41.50
34640;DHT22;22600;48.186;11.526;2024-03-07T14:16:02;21.60;41.60
34640;DHT22;22600;48.186;11.526;2024-03-07T14:21:40;18.80;40.40
34640;DHT22;22600;48.186;11.526;2024-03-07T14:31:51;21.60;41.60
34640;DHT22;22600;48.186;11.526;2024-03-07T14:37:09;21.60;41.60
34640;DHT22;22600;48.186;11.526;2024-03-07T14:42:03;21.60;41.60
34640;DHT22;22600;48.186;11.526;2024-03-07T14:44:33;21.60;41.50
34640;DHT22;22600;48.186;11.526;2024-03-07T14:47:00;21.60;41.60
34640;DHT22;22600;48.186;11.526;2024-03-07T14:49:26;21.60;41.60
34640;DHT22;22600;48.186;11.526;2024-03-07T14:51:53;21.60;41.70
34640;DHT22;22600;48.186;11.526;2024-03-07T14:54:21;21.60;41.60
34640;DHT22;22600;48.186;11.526;2024-03-07T14:56:47;21.60;41.70
34640;DHT22;22600;48.186;11.526;2024-03-07T14:59:12;21.60;41.60
34640;DHT22;22600;48.186;11.526;2024-03-07T15:01:38;21.60;41.50
34640;DHT22;22600;48.186;11.526;2024-03-07T15:04:04;21.60;41.60
34640;DHT22;22600;48.186;11.526;2024-03-07T15:06:32;21.60;41.60
34640;DHT22;22600;48.186;11.526;2024-03-07T15:08:58;21.60;41.70
34640;DHT22;22600;48.186;11.526;2024-03-07T15:13:52;21.60;41.90
34640;DHT22;22600;48.186;11.526;2024-03-07T15:16:19;21.60;41.90
34640;DHT22;22600;48.186;11.526;2024-03-07T15:18:45;21.60;42.00
34640;DHT22;22600;48.186;11.526;2024-03-07T15:23:43;21.60;42.10
34640;DHT22;22600;48.186;11.526;2024-03-07T15:26:10;21.60;42.00
34640;DHT22;22600;48.186;11.526;2024-03-07T15:28:36;21.60;42.00
34640;DHT22;22600;48.186;11.526;2024-03-07T15:31:02;21.60;41.90
34640;DHT22;22600;48.186;11.526;2024-03-07T15:35:57;21.60;41.80
34640;DHT22;22600;48.186;11.526;2024-03-07T15:38:22;21.60;42.00
34640;DHT22;22600;48.186;11.526;2024-03-07T15:40:48;21.60;41.80
34640;DHT22;22600;48.186;11.526;2024-03-07T15:43:13;21.60;41.90
34640;DHT22;22600;48.186;11.526;2024-03-07T15:45:39;21.60;41.90
34640;DHT22;22600;48.186;11.526;2024-03-07T15:48:04;21.60;41.90
34640;DHT22;22600;48.186;11.526;2024-03-07T15:50:30;21.60;41.90
34640;DHT22;22600;48.186;11.526;2024-03-07T15:52:57;21.60;41.90
34640;DHT22;22600;48.186;11.526;2024-03-07T15:55:24;21.60;42.00
34640;DHT22;22600;48.186;11.526;2024-03-07T15:57:53;21.60;41.90
34640;DHT22;22600;48.186;11.526;2024-03-07T16:00:20;21.60;42.00
34640;DHT22;22600;48.186;11.526;2024-03-07T16:02:52;21.50;42.00
34640;DHT22;22600;48.186;11.526;2024-03-07T16:05:19;21.60;42.00
34640;DHT22;22600;48.186;11.526;2024-03-07T16:07:44;21.60;42.00
34640;DHT22;22600;48.186;11.526;2024-03-07T16:10:11;21.60;41.90
34640;DHT22;22600;48.186;11.526;2024-03-07T16:12:38;21.60;42.00
34640;DHT22;22600;48.186;11.526;2024-03-07T16:15:03;21.60;42.00
34640;DHT22;22600;48.186;11.526;2024-03-07T16:17:29;21.60;42.00
34640;DHT22;22600;48.186;11.526;2024-03-07T16:19:54;21.60;42.10
34640;DHT22;22600;48.186;11.526;2024-03-07T16:22:20;21.60;41.90
34640;DHT22;22600;48.186;11.526;2024-03-07T16:24:45;21.60;42.00
34640;DHT22;22600;48.186;11.526;2024-03-07T16:27:11;21.60;41.90
34640;DHT22;22600;48.186;11.526;2024-03-07T16:32:02;21.60;41.80
34640;DHT22;22600;48.186;11.526;2024-03-07T16:34:31;21.60;41.80
34640;DHT22;22600;48.186;11.526;2024-03-07T16:36:56;21.60;41.80
34640;DHT22;22600;48.186;11.526;2024-03-07T16:39:24;21.60;41.80
34640;DHT22;22600;48.186;11.526;2024-03-07T16:44:16;21.60;41.70
34640;DHT22;22600;48.186;11.526;2024-03-07T16:46:42;21.50;41.70
34640;DHT22;22600;48.186;11.526;2024-03-07T16:49:07;21.60;41.80
34640;DHT22;22600;48.186;11.526;2024-03-07T16:51:33;21.60;41.90
34640;DHT22;22600;48.186;11.526;2024-03-07T16:53:59;21.60;41.90
34640;DHT22;22600;48.186;11.526;2024-03-07T16:56:25;21.60;41.80
34640;DHT22;22600;48.186;11.526;2024-03-07T16:58:50;21.60;41.90
34640;DHT22;22600;48.186;11.526;2024-03-07T17:01:16;21.60;41.90
34640;DHT22;22600;48.186;11.526;2024-03-07T17:03:41;21.50;41.90
34640;DHT22;22600;48.186;11.526;2024-03-07T17:06:06;21.60;41.80
34640;DHT22;22600;48.186;11.526;2024-03-07T17:08:35;21.50;41.80
34640;DHT22;22600;48.186;11.526;2024-03-07T17:11:02;21.60;41.90
34640;DHT22;22600;48.186;11.526;2024-03-07T17:20:48;22.90;42.60
34640;DHT22;22600;48.186;11.526;2024-03-07T17:23:14;21.60;41.90
34640;DHT22;22600;48.186;11.526;2024-03-07T17:28:06;21.60;42.00
34640;DHT22;22600;48.186;11.526;2024-03-07T17:30:32;21.60;42.00
34640;DHT22;22600;48.186;11.526;2024-03-07T17:35:24;21.60;41.90
34640;DHT22;22600;48.186;11.526;2024-03-07T17:37:50;21.60;42.00
34640;DHT22;22600;48.186;11.526;2024-03-07T17:40:16;21.60;42.00
34640;DHT22;22600;48.186;11.526;2024-03-07T17:42:42;21.60;41.90
34640;DHT22;22600;48.186;11.526;2024-03-07T17:45:09;21.60;41.70
34640;DHT22;22600;48.186;11.526;2024-03-07T17:47:36;21.60;41.70
34640;DHT22;22600;48.186;11.526;2024-03-07T17:50:02;21.60;41.80
34640;DHT22;22600;48.186;11.526;2024-03-07T17:52:29;21.60;41.80
34640;DHT22;22600;48.186;11.526;2024-03-07T17:54:55;21.60;41.80
34640;DHT22;22600;48.186;11.526;2024-03-07T17:57:20;21.60;41.80
34640;DHT22;22600;48.186;11.526;2024-03-07T18:02:14;21.60;41.80
34640;DHT22;22600;48.186;11.526;2024-03-07T18:04:42;21.60;41.70
34640;DHT22;22600;48.186;11.526;2024-03-07T18:07:20;21.60;41.60
34640;DHT22;22600;48.186;11.526;2024-03-07T18:09:50;21.60;41.60
34640;DHT22;22600;48.186;11.526;2024-03-07T18:12:18;21.60;41.50
34640;DHT22;22600;48.186;11.526;2024-03-07T18:14:46;21.60;41.50
34640;DHT22;22600;48.186;11.526;2024-03-07T18:17:16;21.60;41.50
34640;DHT22;22600;48.186;11.526;2024-03-07T18:19:43;21.60;41.70
34640;DHT22;22600;48.186;11.526;2024-03-07T18:22:09;21.60;41.70
34640;DHT22;22600;48.186;11.526;2024-03-07T18:24:35;21.60;41.70
34640;DHT22;22600;48.186;11.526;2024-03-07T18:27:00;21.60;41.80
34640;DHT22;22600;48.186;11.526;2024-03-07T18:29:40;21.60;41.70
34640;DHT22;22600;48.186;11.526;2024-03-07T18:32:05;21.60;41.70
34640;DHT22;22600;48.186;11.526;2024-03-07T18:34:37;21.60;41.90
34640;DHT22;22600;48.186;11.526;2024-03-07T18:37:03;21.60;41.90
34640;DHT22;22600;48.186;11.526;2024-03-07T18:39:28;21.60;41.70
34640;DHT22;22600;48.186;11.526;2024-03-07T18:41:53;21.60;41.60
34640;DHT22;22600;48.186;11.526;2024-03-07T18:44:19;21.60;41.70
34640;DHT22;22600;48.186;11.526;2024-03-07T18:46:45;21.60;41.70
34640;DHT22;22600;48.186;11.526;2024-03-07T18:49:12;21.60;41.70